createdAt,value
2019-05-23T00:01:49.158Z,36.00
2019-05-23T00:04:25.470Z,34.33
2019-05-23T00:06:55.293Z,47.13
2019-05-23T00:09:24.530Z,36.77
2019-05-23T00:11:55.617Z,35.65
2019-05-23T00:14:46.727Z,36.25
2019-05-23T00:17:21.031Z,37.40
2019-05-23T00:19:50.581Z,38.30
2019-05-23T00:22:19.901Z,35.88
2019-05-23T00:24:50.595Z,39.88
2019-05-23T00:27:21.871Z,39.83
2019-05-23T00:29:51.543Z,41.08
2019-05-23T00:32:28.468Z,40.10
2019-05-23T00:34:57.180Z,40.35
2019-05-23T00:37:28.915Z,40.83
2019-05-23T00:39:59.149Z,41.92
2019-05-23T00:42:29.954Z,39.80
2019-05-23T00:45:01.164Z,37.53
2019-05-23T00:47:30.430Z,36.23
2019-05-23T00:49:59.237Z,38.50
2019-05-23T00:52:29.334Z,39.27
2019-05-23T00:54:58.271Z,39.98
2019-05-23T00:57:28.596Z,40.38
2019-05-23T00:59:57.803Z,41.10
2019-05-23T01:02:27.760Z,45.83
2019-05-23T01:04:56.387Z,45.92
2019-05-23T01:07:26.007Z,47.75
2019-05-23T01:09:54.878Z,48.78
2019-05-23T01:12:25.351Z,47.43
2019-05-23T01:14:54.782Z,45.58
2019-05-23T01:17:26.020Z,43.73
2019-05-23T01:19:56.731Z,43.38
2019-05-23T01:22:25.643Z,42.58
2019-05-23T01:24:55.906Z,42.48
2019-05-23T01:27:25.162Z,40.23
2019-05-23T01:29:56.111Z,41.35
2019-05-23T01:32:38.714Z,40.63
2019-05-23T01:35:09.199Z,41.40
2019-05-23T01:37:39.545Z,43.42
2019-05-23T01:40:09.031Z,40.63
2019-05-23T01:42:38.614Z,40.50
2019-05-23T01:45:10.183Z,39.90
2019-05-23T01:47:39.226Z,41.35
2019-05-23T01:50:10.809Z,41.83
2019-05-23T01:52:41.903Z,40.10
2019-05-23T01:55:12.015Z,41.18
2019-05-23T01:57:40.625Z,39.58
2019-05-23T02:00:12.194Z,39.63
2019-05-23T02:02:41.766Z,40.30
2019-05-23T02:05:11.830Z,38.67
2019-05-23T02:07:41.749Z,40.15
2019-05-23T02:10:12.534Z,39.60
2019-05-23T02:12:41.231Z,38.73
2019-05-23T02:15:13.039Z,36.08
2019-05-23T02:17:41.818Z,37.95
2019-05-23T02:20:17.206Z,34.00
2019-05-23T02:22:45.754Z,33.50
2019-05-23T02:25:17.008Z,32.78
2019-05-23T02:27:46.978Z,33.13
2019-05-23T02:30:33.373Z,30.48
2019-05-23T02:32:50.341Z,32.20
2019-05-23T02:35:19.624Z,37.45
2019-05-23T02:37:50.326Z,32.17
2019-05-23T02:40:38.265Z,37.38
2019-05-23T02:43:08.547Z,32.30
2019-05-23T02:45:47.596Z,31.27
2019-05-23T02:48:30.870Z,33.58
2019-05-23T02:51:08.917Z,33.20
2019-05-23T02:53:38.988Z,31.23
2019-05-23T02:56:11.832Z,32.98
2019-05-23T02:58:47.899Z,33.55
2019-05-23T03:01:27.014Z,33.55
2019-05-23T03:03:57.322Z,33.92
2019-05-23T03:06:27.475Z,33.30
2019-05-23T03:08:57.353Z,32.38
2019-05-23T03:11:30.751Z,32.78
2019-05-23T03:14:00.474Z,31.15
2019-05-23T03:16:31.849Z,30.62
2019-05-23T03:19:07.164Z,30.85
2019-05-23T03:21:37.761Z,29.00
2019-05-23T03:24:07.546Z,31.42
2019-05-23T03:26:42.243Z,28.45
2019-05-23T03:29:11.618Z,29.35
2019-05-23T03:31:46.359Z,32.75
2019-05-23T03:34:16.703Z,29.12
2019-05-23T03:36:45.865Z,25.37
2019-05-23T03:39:14.874Z,26.25
2019-05-23T03:41:44.923Z,25.35
2019-05-23T03:44:13.771Z,26.48
2019-05-23T03:46:46.543Z,34.30
2019-05-23T03:49:17.126Z,38.85
2019-05-23T03:51:45.976Z,30.57
2019-05-23T03:54:15.489Z,30.30
2019-05-23T03:56:44.145Z,29.15
2019-05-23T03:59:13.153Z,29.45
2019-05-23T04:01:48.592Z,29.23
2019-05-23T04:04:16.307Z,29.87
2019-05-23T04:06:47.576Z,33.10
2019-05-23T04:09:16.452Z,32.65
2019-05-23T04:11:45.475Z,34.35
2019-05-23T04:14:14.410Z,39.78
2019-05-23T04:16:43.118Z,37.93
2019-05-23T04:19:11.836Z,41.28
2019-05-23T04:21:40.932Z,45.55
2019-05-23T04:24:09.788Z,41.00
2019-05-23T04:26:40.146Z,48.35
2019-05-23T04:29:09.944Z,48.17
2019-05-23T04:31:38.624Z,36.25
2019-05-23T04:34:07.966Z,27.55
2019-05-23T04:36:36.600Z,21.65
2019-05-23T04:39:06.797Z,22.58
2019-05-23T04:41:36.205Z,18.98
2019-05-23T04:44:06.341Z,24.47
2019-05-23T04:46:36.235Z,23.10
2019-05-23T04:49:05.286Z,18.48
2019-05-23T04:51:34.960Z,15.30
2019-05-23T04:54:04.539Z,17.27
2019-05-23T04:56:33.321Z,18.40
2019-05-23T04:59:03.775Z,17.42
2019-05-23T05:01:32.919Z,26.15
2019-05-23T05:04:02.285Z,23.80
2019-05-23T05:06:31.816Z,33.28
2019-05-23T05:09:01.581Z,34.05
2019-05-23T05:11:30.705Z,32.33
2019-05-23T05:14:01.906Z,37.45
2019-05-23T05:16:31.423Z,34.73
2019-05-23T05:19:00.321Z,35.05
2019-05-23T05:21:28.980Z,31.05
2019-05-23T05:23:57.823Z,37.85
2019-05-23T05:26:26.858Z,45.98
2019-05-23T05:28:55.838Z,45.58
2019-05-23T05:31:24.955Z,37.53
2019-05-23T05:33:53.955Z,30.15
2019-05-23T05:36:22.847Z,27.27
2019-05-23T05:38:52.233Z,20.25
2019-05-23T05:41:21.535Z,17.75
2019-05-23T05:43:51.290Z,22.02
2019-05-23T05:46:20.627Z,20.70
2019-05-23T05:48:49.665Z,27.07
2019-05-23T05:51:18.416Z,35.25
2019-05-23T05:53:48.317Z,35.43
2019-05-23T05:56:16.978Z,23.80
2019-05-23T05:58:46.068Z,18.30
2019-05-23T06:01:31.121Z,18.98
2019-05-23T06:03:46.622Z,17.52
2019-05-23T06:06:17.914Z,24.25
2019-05-23T06:08:48.235Z,20.32
2019-05-23T06:11:17.843Z,26.12
2019-05-23T06:13:46.620Z,17.87
2019-05-23T06:16:15.422Z,19.57
2019-05-23T06:18:44.685Z,17.82
2019-05-23T06:21:15.200Z,15.50
2019-05-23T06:23:44.398Z,18.40
2019-05-23T06:26:13.162Z,13.93
2019-05-23T06:28:44.953Z,13.70
2019-05-23T06:31:14.215Z,13.90
2019-05-23T06:33:42.905Z,16.45
2019-05-23T06:36:12.353Z,18.65
2019-05-23T06:38:42.943Z,17.55
2019-05-23T06:41:11.964Z,18.17
2019-05-23T06:43:41.179Z,15.75
2019-05-23T06:46:11.147Z,11.18
2019-05-23T06:48:45.408Z,12.00
2019-05-23T06:51:11.174Z,12.95
2019-05-23T06:53:39.880Z,32.60
2019-05-23T06:56:11.079Z,14.13
2019-05-23T06:58:40.147Z,15.60
2019-05-23T07:01:08.954Z,17.55
2019-05-23T07:03:42.779Z,18.10
2019-05-23T07:06:09.119Z,18.42
2019-05-23T07:08:37.723Z,25.02
2019-05-23T07:11:06.682Z,18.37
2019-05-23T07:13:36.207Z,21.02
2019-05-23T07:16:06.112Z,23.57
2019-05-23T07:18:35.208Z,30.12
2019-05-23T07:21:04.111Z,17.67
2019-05-23T07:23:33.055Z,28.77
2019-05-23T07:26:01.717Z,22.20
2019-05-23T07:28:30.535Z,23.52
2019-05-23T07:30:59.507Z,19.80
2019-05-23T07:33:28.065Z,12.90
2019-05-23T07:35:57.003Z,13.50
2019-05-23T07:38:25.617Z,15.60
2019-05-23T07:40:55.141Z,14.05
2019-05-23T07:43:24.103Z,16.80
2019-05-23T07:45:55.575Z,15.80
2019-05-23T07:48:24.222Z,21.95
2019-05-23T07:50:53.173Z,15.75
2019-05-23T07:53:23.892Z,19.87
2019-05-23T07:55:54.198Z,18.87
2019-05-23T07:58:22.795Z,22.02
2019-05-23T08:00:56.276Z,19.67
2019-05-23T08:03:28.665Z,20.55
2019-05-23T08:08:25.775Z,17.02
2019-05-23T08:10:54.417Z,23.38
2019-05-23T08:13:24.868Z,18.77
2019-05-23T08:15:54.081Z,27.07
2019-05-23T08:18:22.967Z,10.93
2019-05-23T08:20:52.005Z,11.65
2019-05-23T08:23:21.262Z,12.68
2019-05-23T08:25:50.453Z,14.85
2019-05-23T08:28:19.851Z,9.53
2019-05-23T08:30:49.758Z,18.73
2019-05-23T08:33:19.722Z,12.40
2019-05-23T08:35:48.380Z,11.18
2019-05-23T08:38:18.942Z,12.10
2019-05-23T08:40:48.181Z,12.55
2019-05-23T08:43:16.776Z,12.65
2019-05-23T08:45:45.920Z,8.58
2019-05-23T08:48:15.020Z,13.72
2019-05-23T08:50:43.812Z,13.15
2019-05-23T08:53:12.380Z,7.28
2019-05-23T08:55:41.339Z,14.35
2019-05-23T08:58:12.348Z,13.62
2019-05-23T09:00:43.022Z,10.78
2019-05-23T09:03:12.948Z,17.60
2019-05-23T09:05:42.905Z,9.30
2019-05-23T09:08:16.370Z,9.33
2019-05-23T09:10:43.285Z,20.57
2019-05-23T09:13:13.786Z,9.30
2019-05-23T09:15:44.197Z,12.15
2019-05-23T09:18:13.668Z,7.33
2019-05-23T09:20:42.966Z,14.35
2019-05-23T09:23:12.360Z,7.70
2019-05-23T09:25:41.264Z,17.52
2019-05-23T09:28:11.475Z,9.78
2019-05-23T09:30:40.089Z,11.15
2019-05-23T09:33:09.422Z,9.58
2019-05-23T09:35:38.405Z,9.08
2019-05-23T09:38:07.167Z,8.73
2019-05-23T09:40:36.668Z,8.55
2019-05-23T09:43:06.274Z,18.40
2019-05-23T09:45:35.176Z,6.85
2019-05-23T09:48:04.618Z,9.38
2019-05-23T09:50:33.596Z,14.60
2019-05-23T09:53:02.374Z,7.28
2019-05-23T09:55:31.635Z,9.55
2019-05-23T09:58:00.295Z,7.45
2019-05-23T10:00:30.830Z,8.53
2019-05-23T10:03:01.126Z,6.37
2019-05-23T10:05:41.588Z,11.73
2019-05-23T10:08:00.501Z,6.43
2019-05-23T10:10:30.094Z,5.12
2019-05-23T10:12:58.777Z,5.95
2019-05-23T10:15:39.911Z,9.50
2019-05-23T10:18:19.310Z,8.80
2019-05-23T10:20:48.471Z,6.70
2019-05-23T10:23:17.353Z,12.43
2019-05-23T10:25:46.356Z,11.55
2019-05-23T10:28:16.049Z,13.95
2019-05-23T10:30:44.996Z,8.08
2019-05-23T10:33:14.211Z,13.83
2019-05-23T10:35:59.022Z,10.08
2019-05-23T10:38:13.694Z,9.65
2019-05-23T10:40:42.932Z,9.95
2019-05-23T10:43:12.376Z,10.48
2019-05-23T10:45:41.109Z,6.87
2019-05-23T10:48:11.993Z,6.40
2019-05-23T10:53:11.281Z,20.10
2019-05-23T10:55:39.987Z,13.78
2019-05-23T10:58:09.254Z,9.65
2019-05-23T11:00:39.846Z,8.73
2019-05-23T11:03:09.606Z,13.28
2019-05-23T11:05:38.490Z,5.85
2019-05-23T11:08:08.614Z,8.75
2019-05-23T11:10:37.557Z,8.65
2019-05-23T11:13:06.430Z,7.10
2019-05-23T11:15:35.439Z,12.82
2019-05-23T11:18:04.979Z,10.80
2019-05-23T11:20:36.137Z,5.80
2019-05-23T11:23:06.005Z,13.43
2019-05-23T11:25:36.783Z,5.80
2019-05-23T11:28:05.738Z,11.97
2019-05-23T11:30:42.346Z,6.60
2019-05-23T11:33:12.570Z,8.48
2019-05-23T11:35:42.172Z,7.10
2019-05-23T11:38:11.338Z,9.20
2019-05-23T11:40:40.195Z,4.83
2019-05-23T11:43:09.016Z,4.85
2019-05-23T11:45:46.065Z,5.95
2019-05-23T11:48:15.943Z,6.60
2019-05-23T11:50:43.544Z,6.40
2019-05-23T11:53:12.214Z,4.47
2019-05-23T11:55:42.046Z,8.18
2019-05-23T11:58:10.862Z,5.43
2019-05-23T12:00:52.696Z,7.45
2019-05-23T12:03:21.784Z,7.80
2019-05-23T12:05:53.239Z,10.53
2019-05-23T12:08:21.930Z,8.28
2019-05-23T12:10:50.623Z,13.62
2019-05-23T12:13:21.326Z,9.15
2019-05-23T12:15:50.555Z,10.95
2019-05-23T12:18:19.193Z,6.90
2019-05-23T12:20:48.009Z,4.58
2019-05-23T12:23:17.695Z,3.52
2019-05-23T12:25:46.969Z,8.97
2019-05-23T12:28:16.105Z,12.05
2019-05-23T12:30:45.555Z,9.75
2019-05-23T12:33:14.187Z,5.00
2019-05-23T12:35:42.899Z,5.67
2019-05-23T12:38:11.881Z,13.35
2019-05-23T12:40:40.820Z,11.50
2019-05-23T12:43:09.504Z,6.20
2019-05-23T12:45:38.194Z,6.30
2019-05-23T12:48:12.282Z,5.60
2019-05-23T12:50:54.222Z,13.72
2019-05-23T12:53:24.538Z,6.62
2019-05-23T12:55:53.483Z,12.78
2019-05-23T12:58:24.279Z,8.40
2019-05-23T13:00:57.826Z,3.58
2019-05-23T13:03:26.396Z,10.30
2019-05-23T13:06:14.672Z,4.67
2019-05-23T13:08:43.352Z,6.28
2019-05-23T13:11:12.375Z,6.72
2019-05-23T13:13:41.091Z,3.10
2019-05-23T13:16:09.913Z,6.08
2019-05-23T13:18:38.560Z,5.83
2019-05-23T13:21:07.149Z,7.85
2019-05-23T13:23:36.050Z,7.90
2019-05-23T13:26:06.245Z,1.77
2019-05-23T13:28:34.977Z,7.87
2019-05-23T13:31:03.706Z,5.20
2019-05-23T13:33:33.042Z,3.15
2019-05-23T13:36:02.348Z,5.08
2019-05-23T13:38:31.498Z,7.10
2019-05-23T13:41:00.296Z,4.75
2019-05-23T13:43:29.281Z,10.40
2019-05-23T13:45:58.559Z,6.00
2019-05-23T13:48:28.469Z,13.58
2019-05-23T13:50:57.540Z,2.30
2019-05-23T13:53:26.704Z,2.83
2019-05-23T13:55:56.794Z,4.17
2019-05-23T13:58:25.650Z,4.80
2019-05-23T14:00:54.329Z,2.72
2019-05-23T14:03:23.167Z,3.50
2019-05-23T14:05:51.799Z,5.65
2019-05-23T14:08:20.724Z,5.10
2019-05-23T14:10:49.508Z,5.25
2019-05-23T14:13:18.420Z,4.62
2019-05-23T14:15:49.343Z,2.92
2019-05-23T14:18:19.698Z,3.70
2019-05-23T14:20:48.959Z,6.92
2019-05-23T14:23:24.863Z,4.12
2019-05-23T14:25:54.507Z,12.20
2019-05-23T14:28:24.027Z,5.10
2019-05-23T14:31:09.619Z,6.92
2019-05-23T14:33:40.221Z,7.37
2019-05-23T14:38:42.317Z,3.92
2019-05-23T14:41:11.342Z,6.22
2019-05-23T14:43:40.572Z,5.67
2019-05-23T14:46:11.522Z,10.43
2019-05-23T14:48:44.887Z,6.05
2019-05-23T14:51:15.452Z,3.85
2019-05-23T14:56:21.303Z,8.58
2019-05-23T14:58:50.457Z,4.87
2019-05-23T15:01:19.551Z,5.75
2019-05-23T15:03:48.314Z,4.45
2019-05-23T15:06:17.071Z,4.85
2019-05-23T15:08:50.917Z,13.75
2019-05-23T15:11:16.281Z,7.97
2019-05-23T15:13:45.007Z,11.80
2019-05-23T15:16:14.534Z,3.72
2019-05-23T15:18:43.110Z,5.65
2019-05-23T15:21:12.398Z,10.72
2019-05-23T15:23:41.813Z,3.92
2019-05-23T15:26:22.376Z,12.03
2019-05-23T15:28:41.195Z,4.50
2019-05-23T15:31:11.412Z,5.78
2019-05-23T15:33:40.046Z,7.78
2019-05-23T15:36:08.760Z,13.08
2019-05-23T15:38:39.392Z,41.60
2019-05-23T15:41:08.139Z,9.65
2019-05-23T15:43:37.542Z,11.83
2019-05-23T15:46:06.262Z,9.58
2019-05-23T15:48:34.979Z,10.58
2019-05-23T15:51:04.311Z,11.12
2019-05-23T15:53:48.476Z,11.22
2019-05-23T15:56:35.425Z,23.22
2019-05-23T15:59:20.994Z,12.45
2019-05-23T16:01:54.698Z,14.40
2019-05-23T16:04:24.838Z,13.38
2019-05-23T16:06:53.603Z,19.30
2019-05-23T16:09:30.153Z,14.15
2019-05-23T16:14:25.647Z,11.75
2019-05-23T16:16:57.320Z,15.28
2019-05-23T16:19:26.801Z,13.85
2019-05-23T16:21:56.831Z,16.48
2019-05-23T16:24:26.742Z,12.23
2019-05-23T16:26:56.072Z,13.15
2019-05-23T16:29:25.786Z,15.10
2019-05-23T16:31:54.575Z,14.73
2019-05-23T16:34:23.451Z,13.15
2019-05-23T16:36:52.379Z,13.25
2019-05-23T16:39:21.189Z,12.47
2019-05-23T16:41:49.858Z,11.57
2019-05-23T16:44:18.793Z,17.75
2019-05-23T16:46:47.621Z,19.48
2019-05-23T16:49:16.643Z,19.67
2019-05-23T16:51:45.452Z,13.25
2019-05-23T16:54:15.741Z,15.03
2019-05-23T16:56:52.273Z,15.15
2019-05-23T16:59:26.000Z,11.45
2019-05-23T17:02:05.581Z,13.98
2019-05-23T17:04:40.866Z,14.23
2019-05-23T17:07:13.951Z,15.45
2019-05-23T17:10:06.047Z,15.70
2019-05-23T17:12:36.112Z,13.60
2019-05-23T17:15:11.051Z,15.95
2019-05-23T17:18:02.067Z,14.18
2019-05-23T17:20:31.310Z,17.30
2019-05-23T17:23:17.795Z,15.23
2019-05-23T17:25:57.292Z,14.28
2019-05-23T17:28:30.499Z,15.25
2019-05-23T17:31:07.076Z,12.18
2019-05-23T17:33:37.103Z,15.40
2019-05-23T17:36:06.345Z,15.32
2019-05-23T17:38:35.401Z,15.88
2019-05-23T17:41:04.423Z,16.52
2019-05-23T17:43:34.897Z,14.10
2019-05-23T17:46:03.992Z,13.58
2019-05-23T17:48:32.733Z,13.68
2019-05-23T17:51:01.522Z,18.37
2019-05-23T17:53:30.586Z,14.23
2019-05-23T17:55:59.919Z,17.77
2019-05-23T17:58:28.595Z,16.75
2019-05-23T18:00:58.389Z,16.07
2019-05-23T18:03:27.847Z,14.15
2019-05-23T18:05:56.517Z,15.30
2019-05-23T18:08:29.482Z,19.37
2019-05-23T18:10:59.391Z,14.43
2019-05-23T18:13:29.301Z,15.45
2019-05-23T18:15:58.445Z,15.65
2019-05-23T18:18:27.509Z,16.25
2019-05-23T18:20:56.317Z,17.85
2019-05-23T18:23:25.008Z,19.35
2019-05-23T18:25:53.993Z,16.10
2019-05-23T18:28:22.938Z,19.90
2019-05-23T18:30:53.472Z,28.40
2019-05-23T18:33:24.341Z,27.27
2019-05-23T18:35:54.856Z,15.95
2019-05-23T18:38:24.074Z,16.48
2019-05-23T18:41:02.326Z,18.65
2019-05-23T18:43:24.787Z,16.60
2019-05-23T18:45:55.140Z,23.07
2019-05-23T18:48:24.983Z,18.77
2019-05-23T18:50:54.036Z,16.45
2019-05-23T18:53:23.161Z,16.70
2019-05-23T18:55:52.137Z,16.93
2019-05-23T18:58:21.419Z,16.85
2019-05-23T19:00:53.962Z,17.42
2019-05-23T19:03:23.998Z,19.62
2019-05-23T19:05:53.094Z,22.73
2019-05-23T19:08:22.740Z,19.42
2019-05-23T19:10:56.686Z,18.55
2019-05-23T19:13:26.785Z,19.50
2019-05-23T19:15:55.985Z,19.00
2019-05-23T19:18:26.385Z,17.02
2019-05-23T19:20:56.631Z,20.32
2019-05-23T19:23:26.226Z,17.48
2019-05-23T19:25:55.527Z,18.15
2019-05-23T19:28:25.637Z,17.35
2019-05-23T19:30:55.486Z,17.90
2019-05-23T19:33:25.271Z,18.42
2019-05-23T19:35:54.770Z,19.02
2019-05-23T19:38:23.939Z,25.90
2019-05-23T19:40:53.794Z,17.42
2019-05-23T19:43:24.607Z,16.65
2019-05-23T19:45:53.757Z,16.07
2019-05-23T19:48:23.521Z,17.40
2019-05-23T19:50:53.153Z,17.55
2019-05-23T19:53:21.800Z,16.70
2019-05-23T19:55:50.789Z,17.57
2019-05-23T19:58:19.573Z,16.85
2019-05-23T20:00:49.091Z,17.35
2019-05-23T20:03:18.705Z,15.68
2019-05-23T20:05:58.392Z,18.25
2019-05-23T20:08:27.051Z,17.35
2019-05-23T20:10:56.082Z,16.35
2019-05-23T20:13:24.982Z,19.37
2019-05-23T20:15:53.786Z,16.02
2019-05-23T20:18:22.696Z,17.65
2019-05-23T20:20:51.985Z,17.35
2019-05-23T20:23:20.745Z,22.60
2019-05-23T20:25:49.891Z,16.67
2019-05-23T20:28:19.317Z,16.15
2019-05-23T20:30:52.284Z,17.35
2019-05-23T20:33:21.429Z,19.15
2019-05-23T20:35:50.856Z,17.02
2019-05-23T20:38:19.729Z,18.32
2019-05-23T20:40:48.478Z,18.70
2019-05-23T20:43:17.153Z,18.90
2019-05-23T20:45:46.402Z,18.23
2019-05-23T20:48:15.547Z,18.50
2019-05-23T20:50:45.176Z,20.02
2019-05-23T20:53:13.968Z,19.37
2019-05-23T20:55:42.939Z,18.82
2019-05-23T20:58:11.614Z,19.40
2019-05-23T21:00:59.988Z,17.62
2019-05-23T21:03:29.150Z,17.42
2019-05-23T21:05:58.304Z,17.75
2019-05-23T21:08:27.286Z,17.17
2019-05-23T21:10:56.207Z,17.30
2019-05-23T21:13:24.955Z,18.32
2019-05-23T21:15:53.950Z,16.35
2019-05-23T21:18:22.708Z,18.52
2019-05-23T21:20:51.396Z,17.45
2019-05-23T21:23:20.463Z,17.70
2019-05-23T21:25:51.074Z,16.15
2019-05-23T21:28:19.655Z,21.33
2019-05-23T21:30:48.407Z,16.02
2019-05-23T21:33:17.097Z,18.27
2019-05-23T21:35:45.874Z,16.45
2019-05-23T21:38:14.531Z,17.50
2019-05-23T21:40:45.055Z,16.50
2019-05-23T21:43:14.021Z,21.33
2019-05-23T21:45:43.107Z,16.00
2019-05-23T21:48:12.369Z,16.02
2019-05-23T21:50:41.108Z,17.10
2019-05-23T21:53:09.774Z,16.30
2019-05-23T21:55:42.837Z,16.15
2019-05-23T21:58:13.366Z,15.40
2019-05-23T22:01:01.411Z,16.80
2019-05-23T22:03:32.248Z,15.85
2019-05-23T22:06:01.797Z,17.40
2019-05-23T22:08:30.836Z,16.15
2019-05-23T22:10:59.482Z,18.32
2019-05-23T22:13:28.134Z,14.80
2019-05-23T22:15:59.894Z,14.63
2019-05-23T22:18:28.833Z,15.35
2019-05-23T22:20:57.606Z,15.53
2019-05-23T22:23:26.415Z,15.58
2019-05-23T22:25:55.092Z,14.53
2019-05-23T22:28:24.172Z,15.48
2019-05-23T22:30:52.739Z,14.60
2019-05-23T22:33:22.967Z,15.13
2019-05-23T22:35:51.648Z,16.10
2019-05-23T22:38:20.287Z,16.52
2019-05-23T22:40:49.010Z,15.95
2019-05-23T22:43:21.036Z,15.45
2019-05-23T22:45:48.198Z,16.35
2019-05-23T22:48:16.769Z,17.00
2019-05-23T22:50:45.461Z,16.85
2019-05-23T22:53:14.073Z,19.75
2019-05-23T22:55:42.642Z,18.20
2019-05-23T22:58:11.378Z,16.95
2019-05-23T23:00:42.064Z,29.45
2019-05-23T23:03:10.737Z,16.37
2019-05-23T23:05:39.505Z,17.02
2019-05-23T23:08:08.710Z,18.30
2019-05-23T23:10:37.665Z,18.50
2019-05-23T23:13:06.920Z,17.52
2019-05-23T23:15:36.059Z,18.23
2019-05-23T23:18:05.383Z,17.20
2019-05-23T23:20:34.062Z,16.02
2019-05-23T23:23:02.622Z,16.27
2019-05-23T23:25:31.986Z,16.62
2019-05-23T23:28:00.729Z,20.52
2019-05-23T23:30:46.041Z,16.67
2019-05-23T23:33:15.124Z,17.75
2019-05-23T23:35:43.745Z,16.80
2019-05-23T23:38:12.382Z,17.25
2019-05-23T23:40:41.439Z,17.57
2019-05-23T23:43:10.402Z,17.73
2019-05-23T23:45:57.288Z,18.70
2019-05-23T23:48:44.267Z,21.97
2019-05-23T23:51:30.806Z,17.75
2019-05-23T23:54:17.322Z,18.95
2019-05-23T23:57:04.185Z,18.02
2019-05-23T23:59:32.894Z,22.52
